createdAt,value
2022-12-16T00:01:33.175Z,-6.25
2022-12-16T00:04:00.008Z,-6.26
2022-12-16T00:06:31.015Z,-6.28
2022-12-16T00:08:57.545Z,-6.32
2022-12-16T00:11:24.090Z,-6.40
2022-12-16T00:13:50.870Z,-6.43
2022-12-16T00:16:20.236Z,-6.46
2022-12-16T00:18:47.684Z,-6.47
2022-12-16T00:21:14.517Z,-6.48
2022-12-16T00:23:44.438Z,-6.51
2022-12-16T00:26:11.956Z,-6.51
2022-12-16T00:28:39.066Z,-6.53
2022-12-16T00:31:05.953Z,-6.53
2022-12-16T00:33:33.223Z,-6.56
2022-12-16T00:36:00.066Z,-6.59
2022-12-16T00:38:27.147Z,-6.61
2022-12-16T00:40:53.861Z,-6.63
2022-12-16T00:43:20.549Z,-6.64
2022-12-16T00:45:47.853Z,-6.65
2022-12-16T00:48:14.895Z,-6.64
2022-12-16T00:50:41.567Z,-6.59
2022-12-16T00:53:08.654Z,-6.56
2022-12-16T00:55:35.228Z,-6.50
2022-12-16T00:58:01.864Z,-6.49
2022-12-16T01:00:28.427Z,-6.46
2022-12-16T01:02:55.163Z,-6.45
2022-12-16T01:05:27.018Z,-6.42
2022-12-16T01:07:54.874Z,-6.45
2022-12-16T01:10:22.215Z,-6.50
2022-12-16T01:12:48.900Z,-6.49
2022-12-16T01:15:15.955Z,-6.47
2022-12-16T01:17:42.730Z,-6.49
2022-12-16T01:20:10.553Z,-6.48
2022-12-16T01:22:37.347Z,-6.46
2022-12-16T01:25:04.343Z,-6.50
2022-12-16T01:27:31.018Z,-6.55
2022-12-16T01:29:57.578Z,-6.57
2022-12-16T01:32:24.094Z,-6.59
2022-12-16T01:34:55.273Z,-6.59
2022-12-16T01:37:23.320Z,-6.62
2022-12-16T01:39:49.874Z,-6.64
2022-12-16T01:42:19.533Z,-6.64
2022-12-16T01:44:48.807Z,-6.65
2022-12-16T01:47:18.071Z,-6.67
2022-12-16T01:49:50.623Z,-6.68
2022-12-16T01:52:23.712Z,-6.68
2022-12-16T01:55:13.206Z,-6.69
2022-12-16T01:57:50.523Z,-6.70
2022-12-16T02:00:17.319Z,-6.70
2022-12-16T02:02:46.089Z,-6.69
2022-12-16T02:05:22.741Z,-6.70
2022-12-16T02:07:56.636Z,-6.70
2022-12-16T02:10:30.862Z,-6.73
2022-12-16T02:13:24.265Z,-6.74
2022-12-16T02:15:57.831Z,-6.75
2022-12-16T02:18:52.364Z,-6.79
2022-12-16T02:21:38.070Z,-6.78
2022-12-16T02:24:22.751Z,-6.80
2022-12-16T02:26:55.210Z,-6.79
2022-12-16T02:30:04.719Z,-6.82
2022-12-16T02:32:37.192Z,-6.81
2022-12-16T02:35:10.282Z,-6.83
2022-12-16T02:37:43.102Z,-6.82
2022-12-16T02:40:33.352Z,-6.85
2022-12-16T02:43:15.694Z,-6.84
2022-12-16T02:45:42.398Z,-6.83
2022-12-16T02:48:09.147Z,-6.85
2022-12-16T02:50:40.387Z,-6.88
2022-12-16T02:53:08.564Z,-6.91
2022-12-16T02:56:25.064Z,-6.90
2022-12-16T02:59:10.028Z,-6.88
2022-12-16T03:01:46.658Z,-6.89
2022-12-16T03:04:18.878Z,-6.94
2022-12-16T03:06:49.199Z,-6.93
2022-12-16T03:09:21.214Z,-6.93
2022-12-16T03:11:49.503Z,-6.93
2022-12-16T03:14:17.295Z,-6.95
2022-12-16T03:16:44.992Z,-6.93
2022-12-16T03:19:12.164Z,-6.95
2022-12-16T03:21:43.914Z,-6.92
2022-12-16T03:24:13.793Z,-6.90
2022-12-16T03:26:50.934Z,-6.87
2022-12-16T03:29:47.007Z,-6.85
2022-12-16T03:32:35.628Z,-6.91
2022-12-16T03:35:16.526Z,-6.90
2022-12-16T03:37:44.476Z,-6.89
2022-12-16T03:40:11.980Z,-6.88
2022-12-16T03:42:39.513Z,-6.88
2022-12-16T03:45:08.423Z,-6.91
2022-12-16T03:47:34.965Z,-6.94
2022-12-16T03:50:01.706Z,-6.96
2022-12-16T03:52:28.792Z,-7.00
2022-12-16T03:54:55.384Z,-7.01
2022-12-16T03:57:21.957Z,-7.04
2022-12-16T03:59:48.521Z,-7.06
2022-12-16T04:02:15.221Z,-7.07
2022-12-16T04:04:41.936Z,-7.09
2022-12-16T04:07:20.520Z,-7.13
2022-12-16T04:09:47.870Z,-7.13
2022-12-16T04:12:32.854Z,-7.13
2022-12-16T04:15:37.633Z,-7.19
2022-12-16T04:18:24.008Z,-7.23
2022-12-16T04:21:11.863Z,-7.31
2022-12-16T04:24:10.222Z,-7.33
2022-12-16T04:26:56.924Z,-7.37
2022-12-16T04:29:23.799Z,-7.41
2022-12-16T04:31:51.203Z,-7.42
2022-12-16T04:34:26.810Z,-7.42
2022-12-16T04:37:17.643Z,-7.46
2022-12-16T04:40:03.013Z,-7.46
2022-12-16T04:42:48.382Z,-7.49
2022-12-16T04:45:33.795Z,-7.55
2022-12-16T04:48:18.800Z,-7.58
2022-12-16T04:51:04.320Z,-7.58
2022-12-16T04:53:49.436Z,-7.58
2022-12-16T04:56:34.516Z,-7.58
2022-12-16T04:59:19.582Z,-7.58
2022-12-16T05:02:04.917Z,-7.57
2022-12-16T05:04:50.225Z,-7.57
2022-12-16T05:07:38.513Z,-7.58
2022-12-16T05:10:25.248Z,-7.60
2022-12-16T05:13:12.879Z,-7.59
2022-12-16T05:15:58.460Z,-7.54
2022-12-16T05:18:43.675Z,-7.56
2022-12-16T05:21:28.661Z,-7.57
2022-12-16T05:24:14.076Z,-7.54
2022-12-16T05:26:59.012Z,-7.54
2022-12-16T05:29:44.270Z,-7.54
2022-12-16T05:32:29.171Z,-7.56
2022-12-16T05:35:14.208Z,-7.57
2022-12-16T05:37:58.999Z,-7.58
2022-12-16T05:40:44.003Z,-7.56
2022-12-16T05:43:28.977Z,-7.56
2022-12-16T05:46:14.236Z,-7.55
2022-12-16T05:49:04.093Z,-7.54
2022-12-16T05:51:49.167Z,-7.48
2022-12-16T05:54:34.367Z,-7.45
2022-12-16T05:57:19.372Z,-7.47
2022-12-16T06:00:04.292Z,-7.49
2022-12-16T06:02:56.672Z,-7.53
2022-12-16T06:05:42.033Z,-7.51
2022-12-16T06:08:26.854Z,-7.52
2022-12-16T06:11:11.754Z,-7.58
2022-12-16T06:13:56.715Z,-7.59
2022-12-16T06:16:41.683Z,-7.62
2022-12-16T06:19:26.822Z,-7.66
2022-12-16T06:22:11.905Z,-7.66
2022-12-16T06:24:56.895Z,-7.69
2022-12-16T06:27:41.744Z,-7.69
2022-12-16T06:30:27.443Z,-7.65
2022-12-16T06:33:12.224Z,-7.66
2022-12-16T06:35:57.117Z,-7.71
2022-12-16T06:38:42.243Z,-7.75
2022-12-16T06:41:27.186Z,-7.76
2022-12-16T06:44:12.353Z,-7.79
2022-12-16T06:46:57.264Z,-7.80
2022-12-16T06:49:42.688Z,-7.80
2022-12-16T06:52:27.807Z,-7.78
2022-12-16T06:55:12.833Z,-7.77
2022-12-16T06:57:57.725Z,-7.74
2022-12-16T07:00:42.763Z,-7.72
2022-12-16T07:03:31.418Z,-7.70
2022-12-16T07:06:19.462Z,-7.69
2022-12-16T07:09:04.409Z,-7.68
2022-12-16T07:11:49.671Z,-7.67
2022-12-16T07:14:34.805Z,-7.65
2022-12-16T07:17:19.657Z,-7.64
2022-12-16T07:20:04.724Z,-7.63
2022-12-16T07:23:01.041Z,-7.66
2022-12-16T07:25:49.799Z,-7.60
2022-12-16T07:28:35.021Z,-7.51
2022-12-16T07:31:20.367Z,-7.46
2022-12-16T07:34:05.666Z,-7.45
2022-12-16T07:36:50.629Z,-7.46
2022-12-16T07:39:35.793Z,-7.44
2022-12-16T07:42:20.763Z,-7.43
2022-12-16T07:45:05.950Z,-7.42
2022-12-16T07:47:50.825Z,-7.41
2022-12-16T07:50:36.448Z,-7.36
2022-12-16T07:53:22.309Z,-7.37
2022-12-16T07:56:07.540Z,-7.35
2022-12-16T07:58:52.298Z,-7.31
2022-12-16T08:01:40.273Z,-7.30
2022-12-16T08:04:25.600Z,-7.21
2022-12-16T08:07:10.724Z,-7.15
2022-12-16T08:09:56.121Z,-7.07
2022-12-16T08:12:41.317Z,-7.03
2022-12-16T08:15:26.784Z,-6.94
2022-12-16T08:18:12.135Z,-6.85
2022-12-16T08:20:57.088Z,-6.73
2022-12-16T08:23:42.311Z,-6.61
2022-12-16T08:26:27.443Z,-6.49
2022-12-16T08:29:35.208Z,-6.33
2022-12-16T08:32:18.187Z,-6.22
2022-12-16T08:35:03.209Z,-6.12
2022-12-16T08:37:48.427Z,-6.05
2022-12-16T08:40:35.741Z,-5.92
2022-12-16T08:43:21.599Z,-5.79
2022-12-16T08:46:07.147Z,-5.62
2022-12-16T08:48:52.309Z,-5.42
2022-12-16T08:51:37.339Z,-5.19
2022-12-16T08:54:22.225Z,-4.88
2022-12-16T08:57:07.227Z,-4.60
2022-12-16T08:59:52.078Z,-4.28
2022-12-16T09:02:37.449Z,-3.76
2022-12-16T09:05:23.579Z,-2.76
2022-12-16T09:08:08.607Z,-2.16
2022-12-16T09:10:53.501Z,-1.95
2022-12-16T09:13:40.366Z,-1.70
2022-12-16T09:16:25.663Z,-1.08
2022-12-16T09:19:11.972Z,-0.55
2022-12-16T09:21:56.982Z,-0.82
2022-12-16T09:24:42.207Z,-1.08
2022-12-16T09:27:27.540Z,-1.31
2022-12-16T09:30:12.406Z,-1.48
2022-12-16T09:33:01.963Z,-1.58
2022-12-16T09:35:47.206Z,-1.64
2022-12-16T09:38:32.608Z,-1.64
2022-12-16T09:41:44.620Z,-1.66
2022-12-16T09:44:34.168Z,-1.68
2022-12-16T09:47:32.628Z,-1.70
2022-12-16T09:50:18.306Z,-1.67
2022-12-16T09:53:06.101Z,-1.54
2022-12-16T09:55:55.370Z,-1.38
2022-12-16T09:58:42.039Z,-1.25
2022-12-16T10:01:30.132Z,-1.15
2022-12-16T10:04:15.550Z,-1.04
2022-12-16T10:07:04.346Z,-0.95
2022-12-16T10:09:51.500Z,-0.91
2022-12-16T10:12:51.787Z,-0.91
2022-12-16T10:15:54.904Z,-0.92
2022-12-16T10:18:49.693Z,-1.05
2022-12-16T10:21:40.141Z,-1.11
2022-12-16T10:24:43.971Z,-1.19
2022-12-16T10:27:36.065Z,-1.22
2022-12-16T10:30:22.659Z,-1.17
2022-12-16T10:33:09.184Z,-1.19
2022-12-16T10:35:56.604Z,-1.19
2022-12-16T10:38:50.411Z,-1.24
2022-12-16T10:41:36.730Z,-1.21
2022-12-16T10:44:25.286Z,-1.21
2022-12-16T10:47:10.625Z,-1.10
2022-12-16T10:49:55.959Z,-1.15
2022-12-16T10:52:41.720Z,-1.19
2022-12-16T10:55:53.033Z,-1.25
2022-12-16T10:58:56.214Z,-1.28
2022-12-16T11:01:44.051Z,-1.29
2022-12-16T11:04:55.648Z,-1.33
2022-12-16T11:08:02.845Z,-1.40
2022-12-16T11:10:58.051Z,-1.40
2022-12-16T11:13:51.448Z,-1.36
2022-12-16T11:16:41.430Z,-1.33
2022-12-16T11:19:44.123Z,-1.33
2022-12-16T11:22:38.124Z,-1.41
2022-12-16T11:25:33.386Z,-1.36
2022-12-16T11:28:31.815Z,-1.38
2022-12-16T11:31:31.791Z,-1.25
2022-12-16T11:34:18.629Z,-1.21
2022-12-16T11:37:04.257Z,-1.15
2022-12-16T11:39:50.399Z,-1.16
2022-12-16T11:42:42.973Z,-1.25
2022-12-16T11:45:37.183Z,-1.35
2022-12-16T11:48:31.357Z,-1.29
2022-12-16T11:51:17.031Z,-1.37
2022-12-16T11:54:08.885Z,-1.29
2022-12-16T11:56:56.774Z,-1.18
2022-12-16T11:59:55.342Z,-1.14
2022-12-16T12:02:50.005Z,-1.08
2022-12-16T12:05:37.279Z,-0.94
2022-12-16T12:08:31.603Z,-0.91
2022-12-16T12:11:23.472Z,-0.92
2022-12-16T12:14:39.302Z,-0.95
2022-12-16T12:17:35.978Z,-1.06
2022-12-16T12:20:42.608Z,-1.08
2022-12-16T12:23:29.908Z,-1.02
2022-12-16T12:26:26.346Z,-1.03
2022-12-16T12:29:31.842Z,-1.05
2022-12-16T12:32:45.962Z,-1.10
2022-12-16T12:35:50.312Z,-1.02
2022-12-16T12:38:49.210Z,-1.03
2022-12-16T12:41:46.231Z,-1.10
2022-12-16T12:45:01.179Z,-1.10
2022-12-16T12:47:48.406Z,-1.13
2022-12-16T12:50:42.753Z,-1.11
2022-12-16T12:53:49.603Z,-1.17
2022-12-16T12:56:46.830Z,-1.21
2022-12-16T12:59:50.932Z,-1.16
2022-12-16T13:02:41.469Z,-1.27
2022-12-16T13:05:33.246Z,-1.25
2022-12-16T13:08:56.724Z,-1.40
2022-12-16T13:11:42.877Z,-1.38
2022-12-16T13:14:49.959Z,-1.54
2022-12-16T13:17:42.006Z,-1.44
2022-12-16T13:20:52.138Z,-1.55
2022-12-16T13:23:46.659Z,-1.49
2022-12-16T13:26:34.094Z,-1.46
2022-12-16T13:29:32.070Z,-1.40
2022-12-16T13:32:30.603Z,-1.33
2022-12-16T13:35:23.873Z,-1.35
2022-12-16T13:38:14.085Z,-1.35
2022-12-16T13:41:16.566Z,-1.39
2022-12-16T13:44:15.622Z,-1.38
2022-12-16T13:47:12.069Z,-1.38
2022-12-16T13:50:04.793Z,-1.36
2022-12-16T13:52:59.015Z,-1.40
2022-12-16T13:55:56.048Z,-1.40
2022-12-16T13:59:12.183Z,-1.48
2022-12-16T14:02:06.529Z,-1.52
2022-12-16T14:04:54.417Z,-1.43
2022-12-16T14:07:44.127Z,-1.48
2022-12-16T14:10:54.567Z,-1.48
2022-12-16T14:13:49.953Z,-1.54
2022-12-16T14:16:45.240Z,-1.58
2022-12-16T14:19:51.644Z,-1.62
2022-12-16T14:22:55.310Z,-1.65
2022-12-16T14:25:41.833Z,-1.64
2022-12-16T14:28:40.677Z,-1.74
2022-12-16T14:31:34.318Z,-1.78
2022-12-16T14:34:21.584Z,-1.73
2022-12-16T14:37:06.820Z,-1.76
2022-12-16T14:39:57.356Z,-1.73
2022-12-16T14:42:47.644Z,-1.78
2022-12-16T14:45:50.701Z,-1.84
2022-12-16T14:48:49.454Z,-1.81
2022-12-16T14:51:53.093Z,-1.90
2022-12-16T14:54:46.439Z,-1.85
2022-12-16T14:57:35.050Z,-1.81
2022-12-16T15:00:25.659Z,-1.80
2022-12-16T15:03:14.116Z,-1.78
2022-12-16T15:06:01.107Z,-1.78
2022-12-16T15:08:48.262Z,-1.82
2022-12-16T15:11:56.741Z,-1.85
2022-12-16T15:14:45.935Z,-1.88
2022-12-16T15:17:41.071Z,-1.90
2022-12-16T15:20:36.396Z,-1.89
2022-12-16T15:23:38.234Z,-1.84
2022-12-16T15:26:24.722Z,-1.92
2022-12-16T15:29:10.019Z,-1.94
2022-12-16T15:32:02.969Z,-1.95
2022-12-16T15:35:05.697Z,-1.95
2022-12-16T15:38:00.757Z,-1.99
2022-12-16T15:40:50.686Z,-1.93
2022-12-16T15:43:40.997Z,-1.91
2022-12-16T15:46:35.624Z,-1.90
2022-12-16T15:49:21.382Z,-1.89
2022-12-16T15:52:08.147Z,-1.85
2022-12-16T15:55:08.641Z,-1.82
2022-12-16T15:57:55.319Z,-1.81
2022-12-16T16:00:42.191Z,-1.80
2022-12-16T16:03:40.095Z,-1.81
2022-12-16T16:06:44.878Z,-1.87
2022-12-16T16:09:34.670Z,-1.91
2022-12-16T16:12:19.740Z,-1.89
2022-12-16T16:15:04.531Z,-1.82
2022-12-16T16:17:49.621Z,-1.81
2022-12-16T16:20:36.328Z,-1.87
2022-12-16T16:23:21.648Z,-1.89
2022-12-16T16:26:07.571Z,-1.92
2022-12-16T16:28:53.364Z,-1.98
2022-12-16T16:31:38.789Z,-2.01
2022-12-16T16:34:23.973Z,-1.99
2022-12-16T16:37:12.522Z,-1.97
2022-12-16T16:39:57.703Z,-1.98
2022-12-16T16:42:43.066Z,-2.02
2022-12-16T16:45:28.698Z,-2.02
2022-12-16T16:48:23.391Z,-2.07
2022-12-16T16:51:08.453Z,-2.04
2022-12-16T16:53:53.774Z,-2.06
2022-12-16T16:56:38.950Z,-2.12
2022-12-16T16:59:31.832Z,-2.24
2022-12-16T17:02:17.241Z,-2.27
2022-12-16T17:05:02.507Z,-2.26
2022-12-16T17:07:52.184Z,-2.23
2022-12-16T17:10:38.834Z,-2.28
2022-12-16T17:13:23.786Z,-2.27
2022-12-16T17:16:08.706Z,-2.24
2022-12-16T17:18:54.023Z,-2.21
2022-12-16T17:21:38.946Z,-2.21
2022-12-16T17:24:24.485Z,-2.20
2022-12-16T17:27:09.589Z,-2.17
2022-12-16T17:29:54.781Z,-2.22
2022-12-16T17:32:39.953Z,-2.20
2022-12-16T17:35:25.383Z,-2.23
2022-12-16T17:38:10.403Z,-2.20
2022-12-16T17:40:58.230Z,-2.17
2022-12-16T17:43:43.073Z,-2.20
2022-12-16T17:46:30.230Z,-2.21
2022-12-16T17:49:17.032Z,-2.20
2022-12-16T17:52:02.759Z,-2.24
2022-12-16T17:54:48.082Z,-2.25
2022-12-16T17:57:33.284Z,-2.23
2022-12-16T18:00:18.245Z,-2.24
2022-12-16T18:03:03.600Z,-2.18
2022-12-16T18:05:48.735Z,-2.19
2022-12-16T18:08:34.054Z,-2.25
2022-12-16T18:11:19.103Z,-2.19
2022-12-16T18:14:04.218Z,-2.15
2022-12-16T18:16:49.609Z,-2.21
2022-12-16T18:19:35.345Z,-2.22
2022-12-16T18:22:20.726Z,-2.23
2022-12-16T18:25:05.671Z,-2.23
2022-12-16T18:27:51.175Z,-2.22
2022-12-16T18:30:36.186Z,-2.23
2022-12-16T18:33:21.134Z,-2.20
2022-12-16T18:36:26.010Z,-2.21
2022-12-16T18:39:11.231Z,-2.22
2022-12-16T18:42:03.610Z,-2.27
2022-12-16T18:44:48.881Z,-2.26
2022-12-16T18:47:34.448Z,-2.21
2022-12-16T18:50:25.469Z,-2.18
2022-12-16T18:53:13.007Z,-2.12
2022-12-16T18:55:58.275Z,-2.13
2022-12-16T18:58:59.609Z,-2.18
2022-12-16T19:01:44.860Z,-2.22
2022-12-16T19:04:30.178Z,-2.21
2022-12-16T19:07:14.944Z,-2.17
2022-12-16T19:10:00.239Z,-2.16
2022-12-16T19:12:45.386Z,-2.07
2022-12-16T19:15:30.464Z,-2.07
2022-12-16T19:18:15.580Z,-2.06
2022-12-16T19:21:00.694Z,-2.04
2022-12-16T19:23:45.975Z,-2.05
2022-12-16T19:26:31.259Z,-2.05
2022-12-16T19:29:16.614Z,-2.10
2022-12-16T19:32:01.863Z,-2.18
2022-12-16T19:34:47.276Z,-2.19
2022-12-16T19:37:32.248Z,-2.16
2022-12-16T19:40:17.262Z,-2.13
2022-12-16T19:43:15.782Z,-2.13
2022-12-16T19:46:00.856Z,-2.12
2022-12-16T19:48:46.128Z,-2.13
2022-12-16T19:51:31.317Z,-2.14
2022-12-16T19:54:16.500Z,-2.09
2022-12-16T19:57:01.719Z,-2.10
2022-12-16T19:59:46.974Z,-2.09
2022-12-16T20:02:32.282Z,-2.08
2022-12-16T20:05:25.118Z,-2.11
2022-12-16T20:08:10.081Z,-2.07
2022-12-16T20:10:56.353Z,-2.07
2022-12-16T20:13:42.148Z,-2.10
2022-12-16T20:16:29.869Z,-2.11
2022-12-16T20:19:15.426Z,-2.14
2022-12-16T20:25:06.181Z,-2.03
2022-12-16T20:27:51.449Z,-2.02
2022-12-16T20:30:36.905Z,-1.93
2022-12-16T20:33:22.339Z,-1.90
2022-12-16T20:36:21.679Z,-1.88
2022-12-16T20:39:09.429Z,-1.83
2022-12-16T20:41:56.111Z,-1.78
2022-12-16T20:44:41.343Z,-1.78
2022-12-16T20:47:26.291Z,-1.80
2022-12-16T20:50:11.131Z,-1.73
2022-12-16T20:52:56.583Z,-1.70
2022-12-16T20:55:41.542Z,-1.68
2022-12-16T20:58:26.642Z,-1.69
2022-12-16T21:01:12.838Z,-1.69
2022-12-16T21:03:58.050Z,-1.69
2022-12-16T21:06:43.243Z,-1.72
2022-12-16T21:09:28.517Z,-1.84
2022-12-16T21:12:13.859Z,-1.79
2022-12-16T21:14:59.262Z,-1.76
2022-12-16T21:17:44.221Z,-1.73
2022-12-16T21:20:29.602Z,-1.75
2022-12-16T21:23:23.149Z,-1.75
2022-12-16T21:26:08.364Z,-1.73
2022-12-16T21:28:56.124Z,-1.72
2022-12-16T21:31:41.481Z,-1.70
2022-12-16T21:34:26.393Z,-1.71
2022-12-16T21:37:14.368Z,-1.74
2022-12-16T21:39:59.296Z,-1.76
2022-12-16T21:42:44.411Z,-1.74
2022-12-16T21:45:29.664Z,-1.68
2022-12-16T21:48:14.579Z,-1.71
2022-12-16T21:50:59.797Z,-1.70
2022-12-16T21:53:45.119Z,-1.70
2022-12-16T21:56:30.512Z,-1.72
2022-12-16T21:59:15.877Z,-1.74
2022-12-16T22:02:00.952Z,-1.72
2022-12-16T22:04:46.216Z,-1.73
2022-12-16T22:07:31.240Z,-1.73
2022-12-16T22:10:16.123Z,-1.74
2022-12-16T22:13:01.275Z,-1.72
2022-12-16T22:15:46.125Z,-1.73
2022-12-16T22:18:31.246Z,-1.74
2022-12-16T22:21:18.637Z,-1.74
2022-12-16T22:24:03.900Z,-1.75
2022-12-16T22:26:49.304Z,-1.75
2022-12-16T22:29:34.562Z,-1.71
2022-12-16T22:32:19.522Z,-1.70
2022-12-16T22:35:04.471Z,-1.69
2022-12-16T22:37:49.966Z,-1.80
2022-12-16T22:40:34.924Z,-1.82
2022-12-16T22:43:37.023Z,-1.76
2022-12-16T22:46:22.986Z,-1.76
2022-12-16T22:49:07.968Z,-1.75
2022-12-16T22:51:53.806Z,-1.81
2022-12-16T22:54:39.017Z,-1.81
2022-12-16T22:57:26.670Z,-1.81
2022-12-16T23:00:11.906Z,-1.82
2022-12-16T23:02:56.938Z,-1.79
2022-12-16T23:05:42.236Z,-1.82
2022-12-16T23:08:27.031Z,-1.83
2022-12-16T23:11:13.880Z,-1.87
2022-12-16T23:13:59.079Z,-1.82
2022-12-16T23:16:44.055Z,-1.80
2022-12-16T23:19:29.159Z,-1.77
2022-12-16T23:22:14.146Z,-1.76
2022-12-16T23:24:59.148Z,-1.72
2022-12-16T23:27:44.219Z,-1.76
2022-12-16T23:30:29.908Z,-1.69
2022-12-16T23:33:17.367Z,-1.74
2022-12-16T23:36:02.208Z,-1.71
2022-12-16T23:38:47.616Z,-1.69
2022-12-16T23:41:32.649Z,-1.65
2022-12-16T23:44:17.642Z,-1.60
2022-12-16T23:47:02.671Z,-1.56
2022-12-16T23:49:47.802Z,-1.52
2022-12-16T23:52:32.720Z,-1.52
2022-12-16T23:55:17.741Z,-1.50
2022-12-16T23:58:03.014Z,-1.51
